createdAt,value
2022-09-14T00:01:47.029Z,1.75
2022-09-14T00:04:19.163Z,1.58
2022-09-14T00:06:49.229Z,1.55
2022-09-14T00:09:19.726Z,1.60
2022-09-14T00:11:48.133Z,2.15
2022-09-14T00:14:17.117Z,1.80
2022-09-14T00:16:45.677Z,1.60
2022-09-14T00:19:20.539Z,1.55
2022-09-14T00:21:53.220Z,1.63
2022-09-14T00:24:22.410Z,1.52
2022-09-14T00:26:51.017Z,1.80
2022-09-14T00:29:19.719Z,1.60
2022-09-14T00:31:48.013Z,2.00
2022-09-14T00:34:17.807Z,1.80
2022-09-14T00:36:50.072Z,1.90
2022-09-14T00:39:23.584Z,1.70
2022-09-14T00:41:52.568Z,1.90
2022-09-14T00:45:05.686Z,1.88
2022-09-14T00:47:34.888Z,1.95
2022-09-14T00:50:06.909Z,1.70
2022-09-14T00:52:41.946Z,1.50
2022-09-14T00:55:15.623Z,1.70
2022-09-14T00:57:49.874Z,1.60
2022-09-14T01:00:24.447Z,1.58
2022-09-14T01:02:53.073Z,1.83
2022-09-14T01:05:36.736Z,1.75
2022-09-14T01:08:38.279Z,1.80
2022-09-14T01:11:36.745Z,1.20
2022-09-14T01:14:15.785Z,1.60
2022-09-14T01:16:58.538Z,1.45
2022-09-14T01:19:46.182Z,1.60
2022-09-14T01:22:24.838Z,1.27
2022-09-14T01:25:03.030Z,1.63
2022-09-14T01:27:41.663Z,1.52
2022-09-14T01:30:13.734Z,1.58
2022-09-14T01:32:51.014Z,1.70
2022-09-14T01:35:29.484Z,1.90
2022-09-14T01:38:03.997Z,1.70
2022-09-14T01:40:37.834Z,1.50
2022-09-14T01:43:13.982Z,1.40
2022-09-14T01:45:49.422Z,1.70
2022-09-14T01:48:24.920Z,1.77
2022-09-14T01:53:35.605Z,1.60
2022-09-14T01:56:15.181Z,1.60
2022-09-14T01:58:51.413Z,1.63
2022-09-14T02:01:27.129Z,1.70
2022-09-14T02:04:07.313Z,1.65
2022-09-14T02:06:40.201Z,1.55
2022-09-14T02:09:13.345Z,1.70
2022-09-14T02:11:41.534Z,1.60
2022-09-14T02:14:11.334Z,1.73
2022-09-14T02:16:43.880Z,1.42
2022-09-14T02:19:13.395Z,1.67
2022-09-14T02:21:41.805Z,1.38
2022-09-14T02:24:11.145Z,1.50
2022-09-14T02:26:41.282Z,1.83
2022-09-14T02:29:10.634Z,2.10
2022-09-14T02:32:04.646Z,2.05
2022-09-14T02:34:45.820Z,1.80
2022-09-14T02:37:21.133Z,2.35
2022-09-14T02:40:06.002Z,2.72
2022-09-14T02:42:47.924Z,2.60
2022-09-14T02:45:29.525Z,2.63
2022-09-14T02:48:06.120Z,3.05
2022-09-14T02:50:42.716Z,2.40
2022-09-14T02:53:18.959Z,2.20
2022-09-14T02:55:54.078Z,2.17
2022-09-14T02:58:21.893Z,2.17
2022-09-14T03:00:51.224Z,2.10
2022-09-14T03:03:21.719Z,2.40
2022-09-14T03:05:49.549Z,2.00
2022-09-14T03:08:17.449Z,2.83
2022-09-14T03:10:45.261Z,2.20
2022-09-14T03:13:13.088Z,1.73
2022-09-14T03:15:41.218Z,2.05
2022-09-14T03:18:14.400Z,1.75
2022-09-14T03:20:43.384Z,1.80
2022-09-14T03:23:13.096Z,1.85
2022-09-14T03:25:43.653Z,1.90
2022-09-14T03:28:12.837Z,1.70
2022-09-14T03:30:41.121Z,1.80
2022-09-14T03:33:11.063Z,1.80
2022-09-14T03:35:38.956Z,2.33
2022-09-14T03:38:06.964Z,2.00
2022-09-14T03:40:34.786Z,1.50
2022-09-14T03:43:02.646Z,2.55
2022-09-14T03:45:30.536Z,1.70
2022-09-14T03:47:58.409Z,1.92
2022-09-14T03:50:27.804Z,2.00
2022-09-14T03:52:56.153Z,1.85
2022-09-14T03:55:24.403Z,2.35
2022-09-14T03:57:55.512Z,2.20
2022-09-14T04:00:23.973Z,1.98
2022-09-14T04:02:51.927Z,2.60
2022-09-14T04:05:21.802Z,2.03
2022-09-14T04:07:51.263Z,2.30
2022-09-14T04:10:19.106Z,2.55
2022-09-14T04:12:47.131Z,2.20
2022-09-14T04:15:15.141Z,2.30
2022-09-14T04:17:42.982Z,2.78
2022-09-14T04:20:10.988Z,2.83
2022-09-14T04:22:38.744Z,2.75
2022-09-14T04:25:09.386Z,2.80
2022-09-14T04:27:37.275Z,2.80
2022-09-14T04:30:06.783Z,2.88
2022-09-14T04:32:34.783Z,2.85
2022-09-14T04:35:02.741Z,2.70
2022-09-14T04:37:32.141Z,2.63
2022-09-14T04:40:00.305Z,2.45
2022-09-14T04:42:31.351Z,3.13
2022-09-14T04:44:59.088Z,2.60
2022-09-14T04:47:28.983Z,2.90
2022-09-14T04:49:57.127Z,2.97
2022-09-14T04:52:26.141Z,2.60
2022-09-14T04:54:54.032Z,2.85
2022-09-14T04:57:21.850Z,3.10
2022-09-14T04:59:51.122Z,3.33
2022-09-14T05:02:19.635Z,2.63
2022-09-14T05:04:47.445Z,2.97
2022-09-14T05:07:15.205Z,3.08
2022-09-14T05:09:43.564Z,2.70
2022-09-14T05:12:11.352Z,2.75
2022-09-14T05:14:39.145Z,2.83
2022-09-14T05:17:08.953Z,3.22
2022-09-14T05:19:36.899Z,2.63
2022-09-14T05:22:04.631Z,2.50
2022-09-14T05:24:32.569Z,3.25
2022-09-14T05:27:02.198Z,3.38
2022-09-14T05:29:31.743Z,2.55
2022-09-14T05:31:59.930Z,2.20
2022-09-14T05:34:30.263Z,2.70
2022-09-14T05:36:58.019Z,2.40
2022-09-14T05:39:25.936Z,2.30
2022-09-14T05:41:53.988Z,2.05
2022-09-14T05:44:21.959Z,2.35
2022-09-14T05:46:49.922Z,2.10
2022-09-14T05:49:17.894Z,2.05
2022-09-14T05:51:47.121Z,2.00
2022-09-14T05:54:16.706Z,2.28
2022-09-14T05:56:44.861Z,2.35
2022-09-14T05:59:13.103Z,1.90
2022-09-14T06:01:42.061Z,1.90
2022-09-14T06:04:11.428Z,2.00
2022-09-14T06:06:39.307Z,1.80
2022-09-14T06:09:08.584Z,2.58
2022-09-14T06:11:37.662Z,2.95
2022-09-14T06:14:06.332Z,3.15
2022-09-14T06:16:34.916Z,3.85
2022-09-14T06:19:03.580Z,3.70
2022-09-14T06:21:35.190Z,3.67
2022-09-14T06:24:03.939Z,3.63
2022-09-14T06:26:33.454Z,4.00
2022-09-14T06:29:01.398Z,4.20
2022-09-14T06:31:29.372Z,4.40
2022-09-14T06:33:57.249Z,4.28
2022-09-14T06:36:28.243Z,4.07
2022-09-14T06:38:58.684Z,4.25
2022-09-14T06:41:32.868Z,4.90
2022-09-14T06:44:03.500Z,5.63
2022-09-14T06:46:34.442Z,6.75
2022-09-14T06:49:06.589Z,7.13
2022-09-14T06:51:38.825Z,8.70
2022-09-14T06:54:07.874Z,9.07
2022-09-14T06:56:39.045Z,8.07
2022-09-14T06:59:11.380Z,8.32
2022-09-14T07:01:39.786Z,8.70
2022-09-14T07:04:08.666Z,7.70
2022-09-14T07:06:40.941Z,6.95
2022-09-14T07:09:09.154Z,6.45
2022-09-14T07:11:38.972Z,5.70
2022-09-14T07:14:09.332Z,6.18
2022-09-14T07:16:39.482Z,6.07
2022-09-14T07:19:11.710Z,5.80
2022-09-14T07:21:40.570Z,5.57
2022-09-14T07:24:08.638Z,5.47
2022-09-14T07:26:40.469Z,6.35
2022-09-14T07:29:14.169Z,6.80
2022-09-14T07:31:46.563Z,6.70
2022-09-14T07:34:15.547Z,7.72
2022-09-14T07:36:43.642Z,7.40
2022-09-14T07:39:14.362Z,7.53
2022-09-14T07:41:43.558Z,6.88
2022-09-14T07:44:17.277Z,8.55
2022-09-14T07:46:46.810Z,9.68
2022-09-14T07:49:16.156Z,11.32
2022-09-14T07:51:44.698Z,10.70
2022-09-14T07:54:17.028Z,75.60
2022-09-14T07:56:49.232Z,32.30
2022-09-14T07:59:38.238Z,27.60
2022-09-14T08:02:08.032Z,13.02
2022-09-14T08:04:36.229Z,13.45
2022-09-14T08:07:04.086Z,14.32
2022-09-14T08:09:32.041Z,19.77
2022-09-14T08:12:00.438Z,33.38
2022-09-14T08:14:29.574Z,33.53
2022-09-14T08:16:57.520Z,31.88
2022-09-14T08:19:26.938Z,12.55
2022-09-14T08:21:55.357Z,11.30
2022-09-14T08:24:23.776Z,11.73
2022-09-14T08:26:52.574Z,11.07
2022-09-14T08:29:22.761Z,12.20
2022-09-14T08:31:54.490Z,11.20
2022-09-14T08:34:22.318Z,10.98
2022-09-14T08:36:50.638Z,10.75
2022-09-14T08:39:18.807Z,11.15
2022-09-14T08:41:54.110Z,12.00
2022-09-14T08:44:30.405Z,11.45
2022-09-14T08:47:07.000Z,12.13
2022-09-14T08:49:47.364Z,12.70
2022-09-14T08:52:26.406Z,13.35
2022-09-14T08:54:57.008Z,13.93
2022-09-14T08:57:37.463Z,17.50
2022-09-14T09:00:12.880Z,18.52
2022-09-14T09:03:24.703Z,19.25
2022-09-14T09:06:15.148Z,16.77
2022-09-14T09:09:02.633Z,18.38
2022-09-14T09:11:39.521Z,19.27
2022-09-14T09:14:20.022Z,13.77
2022-09-14T09:16:53.895Z,7.90
2022-09-14T09:19:29.002Z,7.30
2022-09-14T09:22:03.740Z,7.25
2022-09-14T09:24:37.648Z,7.03
2022-09-14T09:27:17.016Z,5.53
2022-09-14T09:29:47.729Z,6.20
2022-09-14T09:32:22.017Z,7.03
2022-09-14T09:35:19.835Z,7.25
2022-09-14T09:38:15.829Z,6.93
2022-09-14T09:40:51.929Z,7.15
2022-09-14T09:43:45.287Z,7.07
2022-09-14T09:46:09.410Z,7.47
2022-09-14T09:48:42.924Z,8.57
2022-09-14T09:51:15.827Z,6.50
2022-09-14T09:53:52.846Z,6.10
2022-09-14T09:56:24.016Z,5.88
2022-09-14T09:58:54.912Z,5.50
2022-09-14T10:01:29.191Z,6.35
2022-09-14T10:04:06.889Z,6.50
2022-09-14T10:06:44.611Z,6.18
2022-09-14T10:09:15.492Z,6.20
2022-09-14T10:11:45.678Z,5.43
2022-09-14T10:14:25.111Z,4.78
2022-09-14T10:16:53.774Z,5.28
2022-09-14T10:19:26.636Z,4.35
2022-09-14T10:22:21.950Z,5.45
2022-09-14T10:24:57.703Z,4.85
2022-09-14T10:27:42.259Z,5.53
2022-09-14T10:30:17.207Z,4.80
2022-09-14T10:32:54.866Z,5.13
2022-09-14T10:35:35.191Z,4.47
2022-09-14T10:38:31.963Z,4.00
2022-09-14T10:44:02.547Z,5.90
2022-09-14T10:46:43.449Z,5.05
2022-09-14T10:49:37.848Z,9.30
2022-09-14T10:52:22.461Z,10.55
2022-09-14T10:55:14.345Z,10.73
2022-09-14T10:57:55.579Z,10.80
2022-09-14T11:00:23.730Z,11.15
2022-09-14T11:03:19.458Z,10.23
2022-09-14T11:06:02.670Z,10.73
2022-09-14T11:08:37.460Z,9.73
2022-09-14T11:11:30.600Z,10.32
2022-09-14T11:14:18.172Z,9.13
2022-09-14T11:17:07.168Z,8.60
2022-09-14T11:19:48.676Z,8.30
2022-09-14T11:22:30.693Z,7.57
2022-09-14T11:25:06.286Z,8.02
2022-09-14T11:27:43.827Z,7.22
2022-09-14T11:30:17.757Z,6.85
2022-09-14T11:32:53.457Z,7.15
2022-09-14T11:35:30.091Z,7.00
2022-09-14T11:38:02.032Z,6.20
2022-09-14T11:40:36.734Z,6.07
2022-09-14T11:43:15.308Z,6.40
2022-09-14T11:45:50.165Z,7.10
2022-09-14T11:48:43.968Z,7.03
2022-09-14T11:51:19.224Z,7.13
2022-09-14T11:53:47.354Z,6.30
2022-09-14T11:56:28.341Z,6.47
2022-09-14T11:59:03.767Z,5.85
2022-09-14T12:01:37.349Z,6.28
2022-09-14T12:04:10.619Z,6.18
2022-09-14T12:06:48.004Z,5.82
2022-09-14T12:09:42.903Z,6.32
2022-09-14T12:12:33.507Z,6.50
2022-09-14T12:15:33.982Z,6.00
2022-09-14T12:18:23.355Z,6.45
2022-09-14T12:21:02.797Z,6.45
2022-09-14T12:23:42.735Z,6.32
2022-09-14T12:26:38.883Z,5.22
2022-09-14T12:32:25.745Z,4.85
2022-09-14T12:35:46.278Z,5.03
2022-09-14T12:38:42.480Z,4.18
2022-09-14T12:42:00.925Z,4.38
2022-09-14T12:44:38.419Z,4.43
2022-09-14T12:47:59.563Z,8.52
2022-09-14T12:50:35.575Z,18.02
2022-09-14T12:53:30.819Z,6.30
2022-09-14T12:56:05.337Z,11.77
2022-09-14T12:59:07.193Z,7.47
2022-09-14T13:01:46.247Z,6.07
2022-09-14T13:04:23.646Z,7.45
2022-09-14T13:06:55.953Z,6.15
2022-09-14T13:09:27.580Z,5.82
2022-09-14T13:11:58.784Z,6.55
2022-09-14T13:14:31.697Z,5.72
2022-09-14T13:17:03.254Z,5.57
2022-09-14T13:19:34.053Z,5.38
2022-09-14T13:22:17.869Z,4.28
2022-09-14T13:24:49.023Z,2.60
2022-09-14T13:27:24.051Z,2.50
2022-09-14T13:30:00.435Z,1.80
2022-09-14T13:32:28.925Z,2.33
2022-09-14T13:34:58.423Z,3.10
2022-09-14T13:37:26.386Z,1.92
2022-09-14T13:39:58.893Z,1.80
2022-09-14T13:42:27.339Z,1.58
2022-09-14T13:44:55.377Z,1.75
2022-09-14T13:47:25.928Z,2.03
2022-09-14T13:49:55.264Z,2.20
2022-09-14T13:53:00.669Z,2.30
2022-09-14T13:55:28.241Z,2.30
2022-09-14T13:58:14.245Z,2.30
2022-09-14T14:00:59.851Z,2.25
2022-09-14T14:06:20.575Z,2.33
2022-09-14T14:09:01.356Z,2.05
2022-09-14T14:11:37.960Z,2.20
2022-09-14T14:14:22.103Z,2.28
2022-09-14T14:17:23.368Z,2.75
2022-09-14T14:19:54.187Z,1.75
2022-09-14T14:22:27.347Z,1.80
2022-09-14T14:25:14.517Z,2.00
2022-09-14T14:27:46.076Z,2.00
2022-09-14T14:30:17.889Z,2.40
2022-09-14T14:32:50.832Z,1.92
2022-09-14T14:35:22.332Z,1.75
2022-09-14T14:37:50.993Z,1.70
2022-09-14T14:40:21.009Z,1.67
2022-09-14T14:42:51.368Z,1.63
2022-09-14T14:45:24.516Z,1.83
2022-09-14T14:47:54.508Z,1.60
2022-09-14T14:50:29.013Z,2.20
2022-09-14T14:52:57.150Z,2.67
2022-09-14T14:55:31.710Z,2.00
2022-09-14T14:58:03.022Z,2.17
2022-09-14T15:00:34.830Z,2.42
2022-09-14T15:03:03.200Z,2.30
2022-09-14T15:05:32.353Z,2.60
2022-09-14T15:08:00.868Z,2.10
2022-09-14T15:10:30.627Z,2.22
2022-09-14T15:12:58.495Z,2.90
2022-09-14T15:15:26.724Z,2.70
2022-09-14T15:17:54.961Z,2.90
2022-09-14T15:20:22.979Z,3.30
2022-09-14T15:22:51.527Z,3.10
2022-09-14T15:25:21.297Z,3.42
2022-09-14T15:27:50.566Z,2.85
2022-09-14T15:30:18.580Z,3.17
2022-09-14T15:32:46.722Z,3.20
2022-09-14T15:35:15.742Z,3.40
2022-09-14T15:37:43.624Z,3.90
2022-09-14T15:40:12.109Z,3.83
2022-09-14T15:42:40.042Z,4.05
2022-09-14T15:45:10.830Z,3.80
2022-09-14T15:47:42.386Z,4.05
2022-09-14T15:50:11.697Z,3.72
2022-09-14T15:52:40.351Z,3.97
2022-09-14T15:55:11.924Z,3.80
2022-09-14T15:57:40.091Z,3.50
2022-09-14T16:00:13.658Z,4.07
2022-09-14T16:02:41.607Z,3.80
2022-09-14T16:05:10.874Z,3.80
2022-09-14T16:07:39.570Z,4.30
2022-09-14T16:10:09.075Z,4.07
2022-09-14T16:12:36.992Z,5.45
2022-09-14T16:15:06.176Z,4.80
2022-09-14T16:17:36.715Z,4.88
2022-09-14T16:20:06.197Z,4.80
2022-09-14T16:22:34.218Z,4.68
2022-09-14T16:25:02.080Z,5.05
2022-09-14T16:27:30.904Z,5.15
2022-09-14T16:29:58.779Z,5.10
2022-09-14T16:32:26.547Z,4.63
2022-09-14T16:34:55.747Z,4.88
2022-09-14T16:37:23.498Z,4.85
2022-09-14T16:39:51.504Z,4.65
2022-09-14T16:42:20.085Z,5.00
2022-09-14T16:44:48.017Z,4.53
2022-09-14T16:47:15.919Z,5.03
2022-09-14T16:49:44.023Z,4.43
2022-09-14T16:52:14.595Z,5.00
2022-09-14T16:54:42.659Z,4.57
2022-09-14T16:57:10.617Z,4.35
2022-09-14T16:59:38.797Z,4.68
2022-09-14T17:02:06.682Z,4.57
2022-09-14T17:04:34.523Z,5.00
2022-09-14T17:07:02.271Z,4.57
2022-09-14T17:09:33.112Z,5.00
2022-09-14T17:12:01.147Z,4.60
2022-09-14T17:14:33.056Z,4.88
2022-09-14T17:17:01.354Z,4.75
2022-09-14T17:19:29.382Z,4.80
2022-09-14T17:21:57.310Z,4.55
2022-09-14T17:24:25.963Z,9.32
2022-09-14T17:26:55.111Z,4.97
2022-09-14T17:29:23.575Z,5.85
2022-09-14T17:31:51.338Z,5.68
2022-09-14T17:34:19.209Z,5.13
2022-09-14T17:36:47.189Z,5.38
2022-09-14T17:39:15.532Z,5.05
2022-09-14T17:41:44.247Z,5.22
2022-09-14T17:44:15.858Z,5.22
2022-09-14T17:46:51.971Z,5.22
2022-09-14T17:49:21.829Z,5.15
2022-09-14T17:51:50.717Z,5.72
2022-09-14T17:54:19.608Z,5.97
2022-09-14T17:56:47.817Z,6.43
2022-09-14T17:59:22.501Z,7.50
2022-09-14T18:01:50.862Z,8.20
2022-09-14T18:04:18.739Z,9.75
2022-09-14T18:06:49.711Z,9.68
2022-09-14T18:09:21.137Z,8.18
2022-09-14T18:11:50.884Z,7.63
2022-09-14T18:14:20.048Z,7.75
2022-09-14T18:16:48.035Z,8.10
2022-09-14T18:19:16.472Z,7.85
2022-09-14T18:21:45.910Z,8.50
2022-09-14T18:24:15.928Z,8.55
2022-09-14T18:26:46.166Z,8.25
2022-09-14T18:29:18.284Z,9.52
2022-09-14T18:31:47.541Z,10.77
2022-09-14T18:34:17.526Z,12.25
2022-09-14T18:36:45.423Z,11.52
2022-09-14T18:39:14.079Z,10.80
2022-09-14T18:41:43.537Z,9.45
2022-09-14T18:44:11.389Z,9.70
2022-09-14T18:46:39.370Z,9.73
2022-09-14T18:49:10.758Z,9.68
2022-09-14T18:51:40.510Z,10.02
2022-09-14T18:54:12.806Z,10.27
2022-09-14T18:56:42.665Z,9.90
2022-09-14T18:59:15.447Z,10.27
2022-09-14T19:01:46.318Z,9.63
2022-09-14T19:04:15.776Z,10.25
2022-09-14T19:06:44.689Z,10.77
2022-09-14T19:09:13.110Z,10.82
2022-09-14T19:11:41.988Z,11.95
2022-09-14T19:14:18.908Z,11.32
2022-09-14T19:16:50.336Z,12.20
2022-09-14T19:19:21.135Z,12.27
2022-09-14T19:21:49.222Z,12.65
2022-09-14T19:24:18.480Z,12.85
2022-09-14T19:26:48.999Z,12.65
2022-09-14T19:29:25.014Z,13.13
2022-09-14T19:31:53.417Z,13.88
2022-09-14T19:34:26.972Z,16.83
2022-09-14T19:37:04.429Z,15.25
2022-09-14T19:39:34.110Z,14.50
2022-09-14T19:42:03.303Z,14.98
2022-09-14T19:44:31.444Z,14.60
2022-09-14T19:46:59.826Z,15.05
2022-09-14T19:49:30.699Z,14.93
2022-09-14T19:51:59.999Z,14.82
2022-09-14T19:54:27.886Z,15.38
2022-09-14T19:56:58.757Z,14.85
2022-09-14T19:59:28.828Z,15.43
2022-09-14T20:02:00.439Z,16.27
2022-09-14T20:04:29.866Z,14.55
2022-09-14T20:06:57.831Z,15.52
2022-09-14T20:09:26.062Z,14.18
2022-09-14T20:11:55.518Z,13.80
2022-09-14T20:14:25.839Z,12.35
2022-09-14T20:16:56.441Z,14.52
2022-09-14T20:19:27.726Z,15.27
2022-09-14T20:21:57.441Z,15.18
2022-09-14T20:24:28.421Z,14.15
2022-09-14T20:27:00.255Z,13.75
2022-09-14T20:29:31.280Z,13.95
2022-09-14T20:32:00.902Z,14.52
2022-09-14T20:34:29.807Z,15.65
2022-09-14T20:37:01.618Z,15.73
2022-09-14T20:39:30.406Z,15.52
2022-09-14T20:41:58.275Z,15.23
2022-09-14T20:44:26.024Z,15.80
2022-09-14T20:46:53.761Z,16.00
2022-09-14T20:49:23.750Z,15.25
2022-09-14T20:51:52.656Z,16.05
2022-09-14T20:54:22.974Z,16.50
2022-09-14T20:56:50.868Z,16.17
2022-09-14T20:59:19.681Z,15.10
2022-09-14T21:01:49.804Z,16.00
2022-09-14T21:04:20.919Z,16.48
2022-09-14T21:06:52.539Z,16.52
2022-09-14T21:09:24.980Z,16.88
2022-09-14T21:11:53.858Z,17.73
2022-09-14T21:14:22.715Z,17.10
2022-09-14T21:16:56.836Z,16.75
2022-09-14T21:19:28.142Z,15.32
2022-09-14T21:21:56.460Z,15.75
2022-09-14T21:24:26.004Z,16.60
2022-09-14T21:26:55.995Z,16.00
2022-09-14T21:29:24.521Z,15.98
2022-09-14T21:31:53.094Z,15.68
2022-09-14T21:34:21.368Z,16.60
2022-09-14T21:36:51.347Z,15.68
2022-09-14T21:39:25.454Z,15.27
2022-09-14T21:41:59.328Z,14.50
2022-09-14T21:44:29.918Z,15.15
2022-09-14T21:46:58.493Z,13.30
2022-09-14T21:49:26.462Z,13.85
2022-09-14T21:51:54.514Z,14.23
2022-09-14T21:54:22.358Z,14.80
2022-09-14T21:56:50.147Z,14.30
2022-09-14T21:59:22.637Z,14.07
2022-09-14T22:01:51.649Z,14.00
2022-09-14T22:04:23.124Z,15.05
2022-09-14T22:06:51.695Z,13.98
2022-09-14T22:09:26.795Z,14.13
2022-09-14T22:11:55.744Z,13.93
2022-09-14T22:14:27.928Z,15.38
2022-09-14T22:16:56.170Z,14.13
2022-09-14T22:19:27.404Z,13.93
2022-09-14T22:21:56.492Z,14.80
2022-09-14T22:24:37.040Z,15.38
2022-09-14T22:27:07.295Z,14.38
2022-09-14T22:29:37.698Z,14.27
2022-09-14T22:32:08.104Z,14.55
2022-09-14T22:34:36.537Z,14.10
2022-09-14T22:37:05.187Z,13.65
2022-09-14T22:39:33.143Z,13.27
2022-09-14T22:42:01.221Z,13.25
2022-09-14T22:44:29.056Z,13.13
2022-09-14T22:46:58.144Z,13.05
2022-09-14T22:49:26.269Z,12.60
2022-09-14T22:51:54.180Z,12.52
2022-09-14T22:54:22.292Z,12.77
2022-09-14T22:56:50.024Z,12.43
2022-09-14T22:59:17.814Z,12.18
2022-09-14T23:01:45.822Z,11.82
2022-09-14T23:04:15.084Z,11.65
2022-09-14T23:06:47.450Z,11.02
2022-09-14T23:09:18.848Z,11.25
2022-09-14T23:11:46.935Z,11.48
2022-09-14T23:14:16.423Z,11.07
2022-09-14T23:16:45.115Z,11.55
2022-09-14T23:19:18.092Z,10.98
2022-09-14T23:21:46.502Z,11.10
2022-09-14T23:24:15.449Z,12.07
2022-09-14T23:26:43.572Z,11.15
2022-09-14T23:29:15.270Z,10.77
2022-09-14T23:31:43.995Z,10.60
2022-09-14T23:34:12.973Z,11.88
2022-09-14T23:36:42.499Z,11.32
2022-09-14T23:39:10.258Z,11.68
2022-09-14T23:41:39.785Z,11.88
2022-09-14T23:44:09.345Z,11.27
2022-09-14T23:46:37.097Z,12.00
2022-09-14T23:49:05.079Z,11.90
2022-09-14T23:51:33.159Z,12.32
2022-09-14T23:54:02.295Z,12.77
2022-09-14T23:56:30.227Z,12.63
2022-09-14T23:58:58.164Z,13.00
